createdAt,value
2019-05-29T00:00:12.919Z,101972.07
2019-05-29T00:02:40.884Z,101974.38
2019-05-29T00:05:08.774Z,101972.13
2019-05-29T00:07:36.510Z,101968.31
2019-05-29T00:10:06.191Z,101974.84
2019-05-29T00:12:34.048Z,101978.53
2019-05-29T00:15:01.796Z,101985.36
2019-05-29T00:17:29.765Z,101992.55
2019-05-29T00:19:59.305Z,101981.29
2019-05-29T00:22:27.004Z,101989.14
2019-05-29T00:24:54.917Z,101987.31
2019-05-29T00:27:22.682Z,101989.03
2019-05-29T00:29:50.408Z,101983.92
2019-05-29T00:32:18.414Z,101990.25
2019-05-29T00:34:46.153Z,101996.84
2019-05-29T00:37:14.618Z,101995.48
2019-05-29T00:39:42.641Z,101996.48
2019-05-29T00:42:13.194Z,102002.44
2019-05-29T00:44:41.102Z,102000.61
2019-05-29T00:47:09.503Z,102002.39
2019-05-29T00:49:37.838Z,102003.75
2019-05-29T00:52:05.704Z,102007.20
2019-05-29T00:54:33.508Z,102008.72
2019-05-29T00:57:01.440Z,102005.16
2019-05-29T00:59:29.139Z,102008.41
2019-05-29T01:01:56.886Z,102011.59
2019-05-29T01:04:24.753Z,102005.73
2019-05-29T01:06:52.465Z,102000.09
2019-05-29T01:09:20.767Z,102011.58
2019-05-29T01:11:48.960Z,102013.66
2019-05-29T01:14:19.397Z,102016.08
2019-05-29T01:16:47.378Z,102022.80
2019-05-29T01:19:24.076Z,102024.25
2019-05-29T01:21:52.164Z,102023.73
2019-05-29T01:24:20.648Z,102029.85
2019-05-29T01:26:48.794Z,102035.68
2019-05-29T01:29:16.993Z,102033.17
2019-05-29T01:31:45.046Z,102035.88
2019-05-29T01:34:13.527Z,102038.08
2019-05-29T01:36:41.368Z,102038.62
2019-05-29T01:39:09.387Z,102033.46
2019-05-29T01:41:39.006Z,102027.81
2019-05-29T01:44:07.021Z,102039.98
2019-05-29T01:46:34.724Z,102035.80
2019-05-29T01:49:02.576Z,102035.88
2019-05-29T01:51:30.307Z,102048.15
2019-05-29T01:53:58.019Z,102049.40
2019-05-29T01:56:25.902Z,102054.25
2019-05-29T01:58:53.980Z,102046.93
2019-05-29T02:01:21.959Z,102049.50
2019-05-29T02:03:49.768Z,102052.05
2019-05-29T02:06:17.944Z,102056.91
2019-05-29T02:08:45.802Z,102060.06
2019-05-29T02:11:13.505Z,102056.14
2019-05-29T02:13:41.420Z,102052.14
2019-05-29T02:16:09.278Z,102062.07
2019-05-29T02:18:37.124Z,102058.30
2019-05-29T02:21:05.240Z,102049.33
2019-05-29T02:23:34.749Z,102061.45
2019-05-29T02:26:02.481Z,102059.63
2019-05-29T02:28:30.377Z,102067.45
2019-05-29T02:30:58.332Z,102065.98
2019-05-29T02:33:26.818Z,102066.57
2019-05-29T02:35:55.860Z,102079.48
2019-05-29T02:38:25.074Z,102081.72
2019-05-29T02:40:53.165Z,102081.20
2019-05-29T02:43:21.499Z,102090.38
2019-05-29T02:45:54.660Z,102097.50
2019-05-29T02:48:21.402Z,102093.45
2019-05-29T02:50:50.853Z,102095.05
2019-05-29T02:53:22.100Z,102086.34
2019-05-29T02:55:50.277Z,102091.14
2019-05-29T02:58:18.002Z,102084.78
2019-05-29T03:00:55.334Z,102085.08
2019-05-29T03:03:26.578Z,102088.20
2019-05-29T03:05:55.336Z,102092.73
2019-05-29T03:08:24.621Z,102084.41
2019-05-29T03:10:52.854Z,102087.40
2019-05-29T03:13:20.579Z,102090.47
2019-05-29T03:16:05.723Z,102094.00
2019-05-29T03:18:18.235Z,102093.50
2019-05-29T03:20:45.920Z,102091.09
2019-05-29T03:23:14.877Z,102093.73
2019-05-29T03:25:42.580Z,102092.89
2019-05-29T03:28:10.409Z,102088.68
2019-05-29T03:30:45.359Z,102092.52
2019-05-29T03:33:07.741Z,102101.30
2019-05-29T03:35:43.444Z,102110.47
2019-05-29T03:38:05.575Z,102105.52
2019-05-29T03:40:35.157Z,102098.16
2019-05-29T03:43:03.358Z,102102.69
2019-05-29T03:45:34.024Z,102109.28
2019-05-29T03:48:01.998Z,102107.59
2019-05-29T03:50:33.303Z,102098.27
2019-05-29T03:53:01.407Z,102099.95
2019-05-29T03:55:29.358Z,102092.98
2019-05-29T03:57:57.338Z,102097.34
2019-05-29T04:00:29.886Z,102108.32
2019-05-29T04:02:54.861Z,102114.72
2019-05-29T04:05:22.714Z,102121.40
2019-05-29T04:07:50.576Z,102124.23
2019-05-29T04:10:29.341Z,102122.81
2019-05-29T04:12:59.917Z,102124.58
2019-05-29T04:15:33.830Z,102131.22
2019-05-29T04:18:04.545Z,102144.14
2019-05-29T04:20:33.973Z,102150.08
2019-05-29T04:23:05.508Z,102157.41
2019-05-29T04:25:40.593Z,102164.89
2019-05-29T04:28:07.430Z,102169.22
2019-05-29T04:30:36.532Z,102170.48
2019-05-29T04:33:05.108Z,102159.67
2019-05-29T04:35:34.461Z,102169.25
2019-05-29T04:38:02.653Z,102168.07
2019-05-29T04:40:30.650Z,102183.91
2019-05-29T04:42:58.377Z,102187.23
2019-05-29T04:45:26.311Z,102189.39
2019-05-29T04:47:54.143Z,102194.48
2019-05-29T04:50:21.895Z,102191.33
2019-05-29T04:52:49.816Z,102196.59
2019-05-29T04:55:17.515Z,102191.53
2019-05-29T04:57:45.216Z,102189.98
2019-05-29T05:00:13.855Z,102200.14
2019-05-29T05:02:41.559Z,102203.55
2019-05-29T05:05:09.888Z,102210.80
2019-05-29T05:07:37.584Z,102211.98
2019-05-29T05:10:06.346Z,102214.13
2019-05-29T05:12:35.787Z,102211.34
2019-05-29T05:15:04.158Z,102219.13
2019-05-29T05:17:32.062Z,102213.41
2019-05-29T05:19:59.893Z,102218.53
2019-05-29T05:22:27.604Z,102217.95
2019-05-29T05:24:55.535Z,102209.22
2019-05-29T05:27:23.255Z,102220.76
2019-05-29T05:29:50.974Z,102226.52
2019-05-29T05:32:18.828Z,102230.20
2019-05-29T05:34:46.584Z,102230.90
2019-05-29T05:37:14.279Z,102238.42
2019-05-29T05:39:42.389Z,102239.60
2019-05-29T05:42:10.082Z,102237.78
2019-05-29T05:44:39.008Z,102237.08
2019-05-29T05:47:07.079Z,102247.39
2019-05-29T05:49:35.436Z,102241.18
2019-05-29T05:52:03.436Z,102241.78
2019-05-29T05:54:31.396Z,102238.23
2019-05-29T05:56:59.381Z,102239.03
2019-05-29T05:59:27.128Z,102247.37
2019-05-29T06:01:54.852Z,102251.19
2019-05-29T06:04:22.685Z,102258.32
2019-05-29T06:06:50.574Z,102255.08
2019-05-29T06:09:18.304Z,102253.61
2019-05-29T06:11:46.006Z,102249.76
2019-05-29T06:14:13.863Z,102256.72
2019-05-29T06:16:42.753Z,102256.56
2019-05-29T06:19:10.646Z,102254.41
2019-05-29T06:21:38.832Z,102255.41
2019-05-29T06:24:06.760Z,102258.14
2019-05-29T06:26:34.873Z,102247.91
2019-05-29T06:29:02.950Z,102257.50
2019-05-29T06:31:30.691Z,102260.33
2019-05-29T06:33:58.409Z,102260.93
2019-05-29T06:36:26.391Z,102256.04
2019-05-29T06:38:54.289Z,102267.34
2019-05-29T06:41:23.530Z,102267.01
2019-05-29T06:43:51.259Z,102270.30
2019-05-29T06:46:18.978Z,102272.34
2019-05-29T06:48:58.615Z,102268.88
2019-05-29T06:51:16.456Z,102270.91
2019-05-29T06:53:44.302Z,102266.07
2019-05-29T06:56:12.419Z,102265.36
2019-05-29T06:58:40.487Z,102266.67
2019-05-29T07:01:08.452Z,102264.51
2019-05-29T07:03:37.545Z,102270.47
2019-05-29T07:06:05.512Z,102271.12
2019-05-29T07:08:38.970Z,102273.98
2019-05-29T07:11:03.305Z,102271.88
2019-05-29T07:13:34.703Z,102279.72
2019-05-29T07:16:00.773Z,102274.23
2019-05-29T07:18:28.680Z,102278.28
2019-05-29T07:20:56.400Z,102290.92
2019-05-29T07:23:25.501Z,102279.66
2019-05-29T07:25:53.410Z,102282.82
2019-05-29T07:28:21.296Z,102295.94
2019-05-29T07:30:59.638Z,102284.72
2019-05-29T07:33:18.863Z,102284.66
2019-05-29T07:55:53.671Z,102273.09
2019-05-29T07:58:23.203Z,102271.43
2019-05-29T08:01:09.760Z,102268.23
2019-05-29T08:03:20.742Z,102270.30
2019-05-29T08:05:51.429Z,102263.72
2019-05-29T08:08:18.222Z,102266.56
2019-05-29T08:10:45.967Z,102264.03
2019-05-29T08:13:13.903Z,102254.58
2019-05-29T08:15:53.958Z,102256.94
2019-05-29T08:18:11.563Z,102262.22
2019-05-29T08:20:39.815Z,102257.25
2019-05-29T08:23:09.559Z,102257.58
2019-05-29T08:25:37.437Z,102256.23
2019-05-29T08:28:05.307Z,102247.64
2019-05-29T08:30:33.012Z,102250.58
2019-05-29T08:33:00.857Z,102250.27
2019-05-29T08:35:28.547Z,102249.21
2019-05-29T08:37:56.300Z,102259.72
2019-05-29T08:40:24.346Z,102249.25
2019-05-29T08:42:52.056Z,102258.00
2019-05-29T08:45:19.908Z,102251.86
2019-05-29T08:47:49.762Z,102246.95
2019-05-29T08:50:19.261Z,102241.91
2019-05-29T08:52:48.092Z,102238.20
2019-05-29T08:55:15.992Z,102240.37
2019-05-29T08:57:44.215Z,102244.17
2019-05-29T09:00:12.705Z,102240.12
2019-05-29T09:02:40.632Z,102238.84
2019-05-29T09:05:09.284Z,102243.41
2019-05-29T09:07:37.138Z,102238.73
2019-05-29T09:10:06.862Z,102242.02
2019-05-29T09:12:34.599Z,102236.64
2019-05-29T09:15:02.541Z,102242.05
2019-05-29T09:17:57.946Z,102247.42
2019-05-29T09:22:34.084Z,102250.27
2019-05-29T09:24:36.837Z,102246.33
2019-05-29T09:27:04.804Z,102247.20
2019-05-29T09:29:32.553Z,102251.44
2019-05-29T09:32:00.456Z,102260.61
2019-05-29T09:34:28.169Z,102252.31
2019-05-29T09:36:56.146Z,102254.46
2019-05-29T09:39:24.839Z,102254.02
2019-05-29T09:41:52.968Z,102251.86
2019-05-29T09:44:33.934Z,102242.59
2019-05-29T09:46:50.658Z,102246.52
2019-05-29T09:49:18.481Z,102242.61
2019-05-29T09:51:47.119Z,102242.22
2019-05-29T09:54:15.105Z,102244.71
2019-05-29T09:56:43.017Z,102237.79
2019-05-29T09:59:10.949Z,102240.16
2019-05-29T10:01:39.032Z,102242.70
2019-05-29T10:04:07.075Z,102243.66
2019-05-29T10:06:34.969Z,102243.23
2019-05-29T10:09:04.872Z,102240.48
2019-05-29T10:11:32.557Z,102244.09
2019-05-29T10:14:01.405Z,102244.28
2019-05-29T10:16:30.438Z,102242.06
2019-05-29T10:19:00.431Z,102247.06
2019-05-29T10:21:40.270Z,102245.33
2019-05-29T10:23:59.598Z,102249.39
2019-05-29T10:26:27.475Z,102255.31
2019-05-29T10:29:05.484Z,102249.26
2019-05-29T10:36:46.977Z,102247.58
2019-05-29T10:39:13.696Z,102249.32
2019-05-29T10:41:42.653Z,102237.78
2019-05-29T10:44:12.809Z,102235.08
2019-05-29T10:46:40.417Z,102233.09
2019-05-29T10:49:08.098Z,102226.19
2019-05-29T10:51:35.983Z,102217.26
2019-05-29T10:54:03.836Z,102220.34
2019-05-29T10:56:31.532Z,102225.36
2019-05-29T10:59:00.275Z,102224.88
2019-05-29T11:01:28.445Z,102226.76
2019-05-29T11:03:56.215Z,102226.01
2019-05-29T11:06:23.942Z,102215.09
2019-05-29T11:08:52.070Z,102215.00
2019-05-29T11:11:20.123Z,102217.03
2019-05-29T11:13:48.656Z,102220.41
2019-05-29T11:16:16.581Z,102216.61
2019-05-29T11:18:44.348Z,102216.20
2019-05-29T11:21:12.241Z,102218.46
2019-05-29T11:23:40.079Z,102212.41
2019-05-29T11:26:09.807Z,102214.72
2019-05-29T11:28:37.532Z,102215.18
2019-05-29T11:31:07.167Z,102205.57
2019-05-29T11:33:35.092Z,102211.11
2019-05-29T11:36:10.748Z,102216.09
2019-05-29T11:38:32.541Z,102210.72
2019-05-29T11:41:24.751Z,102213.58
2019-05-29T11:43:30.021Z,102207.80
2019-05-29T11:45:59.484Z,102207.27
2019-05-29T11:48:27.436Z,102203.72
2019-05-29T11:50:56.254Z,102210.20
2019-05-29T11:53:24.190Z,102213.55
2019-05-29T11:55:52.463Z,102213.88
2019-05-29T11:58:31.235Z,102218.02
2019-05-29T12:00:51.485Z,102214.88
2019-05-29T12:03:19.227Z,102212.55
2019-05-29T12:05:47.136Z,102208.34
2019-05-29T12:08:14.853Z,102218.38
2019-05-29T12:10:42.775Z,102210.12
2019-05-29T12:13:10.511Z,102204.91
2019-05-29T12:15:38.250Z,102202.59
2019-05-29T12:18:20.022Z,102203.75
2019-05-29T12:20:36.000Z,102209.89
2019-05-29T12:23:25.074Z,102207.00
2019-05-29T12:25:33.468Z,102196.02
2019-05-29T12:28:01.441Z,102196.00
2019-05-29T12:30:30.215Z,102205.77
2019-05-29T12:32:59.065Z,102194.97
2019-05-29T12:35:27.040Z,102191.17
2019-05-29T12:37:55.164Z,102186.98
2019-05-29T12:40:23.269Z,102184.20
2019-05-29T12:42:51.042Z,102191.55
2019-05-29T12:45:19.779Z,102187.45
2019-05-29T12:47:47.478Z,102182.31
2019-05-29T12:50:16.315Z,102190.27
2019-05-29T12:52:44.224Z,102187.25
2019-05-29T12:55:13.984Z,102180.95
2019-05-29T12:57:41.941Z,102174.52
2019-05-29T13:00:10.467Z,102173.25
2019-05-29T13:02:38.194Z,102171.15
2019-05-29T13:05:18.059Z,102173.22
2019-05-29T13:07:40.148Z,102173.11
2019-05-29T13:10:09.981Z,102163.67
2019-05-29T13:12:39.508Z,102161.95
2019-05-29T13:15:08.974Z,102156.98
2019-05-29T13:17:36.878Z,102155.66
2019-05-29T13:20:20.107Z,102152.22
2019-05-29T13:22:36.028Z,102151.28
2019-05-29T13:25:05.529Z,102147.91
2019-05-29T13:27:33.487Z,102148.97
2019-05-29T13:30:03.565Z,102145.11
2019-05-29T13:32:30.860Z,102140.12
2019-05-29T13:35:00.415Z,102137.34
2019-05-29T13:37:30.079Z,102140.31
2019-05-29T13:39:58.015Z,102143.30
2019-05-29T13:42:25.700Z,102137.39
2019-05-29T13:44:54.022Z,102138.72
2019-05-29T13:47:22.046Z,102129.08
2019-05-29T13:49:49.773Z,102136.16
2019-05-29T13:52:17.632Z,102129.59
2019-05-29T13:54:45.368Z,102139.23
2019-05-29T13:57:13.385Z,102130.86
2019-05-29T13:59:41.259Z,102132.20
2019-05-29T14:02:10.427Z,102120.67
2019-05-29T14:04:38.529Z,102118.06
2019-05-29T14:07:06.763Z,102121.58
2019-05-29T14:09:34.613Z,102119.94
2019-05-29T14:12:03.046Z,102115.60
2019-05-29T14:14:30.976Z,102111.87
2019-05-29T14:16:58.692Z,102109.40
2019-05-29T14:19:26.577Z,102106.25
2019-05-29T14:21:54.304Z,102098.50
2019-05-29T14:24:29.333Z,102102.45
2019-05-29T14:26:51.818Z,102098.02
2019-05-29T14:29:19.741Z,102101.22
2019-05-29T14:31:47.676Z,102094.38
2019-05-29T14:34:15.410Z,102096.04
2019-05-29T14:36:43.317Z,102097.99
2019-05-29T14:39:12.530Z,102096.81
2019-05-29T14:41:40.252Z,102096.81
2019-05-29T14:44:08.153Z,102101.27
2019-05-29T14:46:36.035Z,102095.47
2019-05-29T14:49:04.347Z,102087.91
2019-05-29T14:51:32.284Z,102086.27
2019-05-29T14:54:02.643Z,102084.31
2019-05-29T14:56:32.856Z,102090.49
2019-05-29T14:59:00.918Z,102093.05
2019-05-29T15:01:28.641Z,102092.95
2019-05-29T15:03:56.544Z,102089.16
2019-05-29T15:06:24.278Z,102091.16
2019-05-29T15:08:51.999Z,102087.22
2019-05-29T15:11:19.859Z,102091.22
2019-05-29T15:13:49.567Z,102086.89
2019-05-29T15:16:17.432Z,102082.56
2019-05-29T15:18:45.214Z,102073.77
2019-05-29T15:21:13.213Z,102076.05
2019-05-29T15:23:40.952Z,102080.27
2019-05-29T15:26:09.661Z,102081.28
2019-05-29T15:28:37.722Z,102080.32
2019-05-29T15:31:06.337Z,102079.10
2019-05-29T15:33:34.193Z,102079.12
2019-05-29T15:36:02.075Z,102063.90
2019-05-29T15:38:29.781Z,102065.69
2019-05-29T15:40:57.524Z,102072.19
2019-05-29T15:43:25.458Z,102072.19
2019-05-29T15:45:53.190Z,102080.42
2019-05-29T15:48:21.123Z,102078.17
2019-05-29T15:50:48.885Z,102068.84
2019-05-29T15:53:17.866Z,102075.38
2019-05-29T15:55:45.670Z,102072.33
2019-05-29T15:58:13.543Z,102079.48
2019-05-29T16:00:41.497Z,102073.48
2019-05-29T16:03:09.546Z,102065.13
2019-05-29T16:05:38.467Z,102072.42
2019-05-29T16:08:07.873Z,102067.35
2019-05-29T16:10:35.957Z,102068.48
2019-05-29T16:13:03.905Z,102069.95
2019-05-29T16:15:31.611Z,102066.73
2019-05-29T16:18:00.599Z,102067.70
2019-05-29T16:20:28.293Z,102059.19
2019-05-29T16:22:56.140Z,102064.47
2019-05-29T16:25:39.645Z,102066.69
2019-05-29T16:27:55.368Z,102065.39
2019-05-29T16:30:23.321Z,102058.02
2019-05-29T16:32:51.446Z,102062.20
2019-05-29T16:35:19.713Z,102052.76
2019-05-29T16:37:47.670Z,102057.70
2019-05-29T16:40:18.040Z,102048.16
2019-05-29T16:42:45.967Z,102054.63
2019-05-29T16:45:16.173Z,102059.06
2019-05-29T16:47:44.356Z,102053.17
2019-05-29T16:50:14.987Z,102053.73
2019-05-29T16:52:42.944Z,102058.44
2019-05-29T16:55:12.841Z,102043.31
2019-05-29T16:57:40.960Z,102047.23
2019-05-29T17:00:09.399Z,102043.36
2019-05-29T17:02:37.262Z,102045.17
2019-05-29T17:05:05.843Z,102044.78
2019-05-29T17:07:33.850Z,102038.67
2019-05-29T17:10:02.042Z,102042.66
2019-05-29T17:12:30.122Z,102048.28
2019-05-29T17:14:58.176Z,102047.50
2019-05-29T17:17:25.900Z,102050.63
2019-05-29T17:19:55.574Z,102050.08
2019-05-29T17:22:23.312Z,102045.92
2019-05-29T17:24:51.080Z,102058.20
2019-05-29T17:27:19.106Z,102049.58
2019-05-29T17:29:46.955Z,102048.52
2019-05-29T17:32:14.843Z,102052.89
2019-05-29T17:34:42.823Z,102044.66
2019-05-29T17:37:10.558Z,102043.11
2019-05-29T17:39:38.435Z,102042.22
2019-05-29T17:42:06.424Z,102050.41
2019-05-29T17:44:34.181Z,102058.63
2019-05-29T17:47:03.735Z,102069.88
2019-05-29T17:49:34.641Z,102063.42
2019-05-29T17:52:01.275Z,102067.47
2019-05-29T17:54:29.162Z,102060.37
2019-05-29T17:56:57.338Z,102054.09
2019-05-29T17:59:26.327Z,102045.66
2019-05-29T18:01:54.520Z,102049.76
2019-05-29T18:04:22.643Z,102053.89
2019-05-29T18:06:50.575Z,102051.95
2019-05-29T18:09:19.238Z,102046.14
2019-05-29T18:11:47.631Z,102051.61
2019-05-29T18:14:15.475Z,102058.25
2019-05-29T18:16:43.214Z,102066.99
2019-05-29T18:19:11.150Z,102070.64
2019-05-29T18:21:39.021Z,102085.70
2019-05-29T18:24:06.780Z,102086.45
2019-05-29T18:26:46.274Z,102094.59
2019-05-29T18:29:05.809Z,102107.17
2019-05-29T18:31:33.563Z,102102.67
2019-05-29T18:34:01.437Z,102106.80
2019-05-29T18:36:29.677Z,102099.66
2019-05-29T18:38:57.577Z,102101.41
2019-05-29T18:41:26.333Z,102104.68
2019-05-29T18:43:54.363Z,102107.64
2019-05-29T18:46:23.180Z,102106.77
2019-05-29T18:48:51.072Z,102105.51
2019-05-29T18:51:20.346Z,102103.81
2019-05-29T18:53:48.243Z,102103.58
2019-05-29T18:56:15.956Z,102101.61
2019-05-29T18:58:43.911Z,102105.89
2019-05-29T19:01:11.830Z,102104.87
2019-05-29T19:03:40.624Z,102116.24
2019-05-29T19:06:08.657Z,102106.67
2019-05-29T19:08:38.229Z,102106.95
2019-05-29T19:11:06.182Z,102104.23
2019-05-29T19:13:34.182Z,102106.45
2019-05-29T19:16:01.936Z,102115.95
2019-05-29T19:18:30.229Z,102119.99
2019-05-29T19:20:58.288Z,102117.62
2019-05-29T19:23:28.771Z,102120.12
2019-05-29T19:25:56.566Z,102121.48
2019-05-29T19:28:24.618Z,102121.64
2019-05-29T19:30:52.415Z,102123.03
2019-05-29T19:33:20.187Z,102135.59
2019-05-29T19:35:48.167Z,102135.40
2019-05-29T19:38:16.142Z,102128.28
2019-05-29T19:40:45.685Z,102135.27
2019-05-29T19:43:13.627Z,102138.07
2019-05-29T19:45:41.379Z,102136.62
2019-05-29T19:48:09.373Z,102139.17
2019-05-29T19:50:37.108Z,102135.29
2019-05-29T19:53:04.852Z,102142.04
2019-05-29T19:55:37.040Z,102141.09
2019-05-29T19:58:04.372Z,102145.89
2019-05-29T20:00:32.289Z,102157.38
2019-05-29T20:03:00.306Z,102153.59
2019-05-29T20:05:28.629Z,102148.66
2019-05-29T20:07:56.467Z,102152.37
2019-05-29T20:10:24.391Z,102158.33
2019-05-29T20:12:52.224Z,102166.66
2019-05-29T20:15:19.934Z,102161.63
2019-05-29T20:17:47.825Z,102167.95
2019-05-29T20:20:15.962Z,102175.00
2019-05-29T20:22:43.699Z,102179.36
2019-05-29T20:25:13.865Z,102179.38
2019-05-29T20:27:42.512Z,102175.20
2019-05-29T20:30:15.753Z,102173.39
2019-05-29T20:32:43.653Z,102168.58
2019-05-29T20:35:11.499Z,102172.73
2019-05-29T20:37:39.420Z,102177.02
2019-05-29T20:40:08.199Z,102168.95
2019-05-29T20:42:36.372Z,102167.05
2019-05-29T20:45:05.009Z,102159.86
2019-05-29T20:47:33.631Z,102164.02
2019-05-29T20:50:02.892Z,102161.77
2019-05-29T20:52:31.057Z,102157.02
2019-05-29T20:54:59.120Z,102163.64
2019-05-29T20:57:28.662Z,102153.82
2019-05-29T20:59:56.681Z,102165.08
2019-05-29T21:02:24.448Z,102162.64
2019-05-29T21:04:52.555Z,102156.00
2019-05-29T21:07:20.529Z,102151.81
2019-05-29T21:09:48.480Z,102158.63
2019-05-29T21:12:16.313Z,102160.33
2019-05-29T21:14:44.735Z,102164.14
2019-05-29T21:17:12.916Z,102161.59
2019-05-29T21:19:40.827Z,102162.14
2019-05-29T21:22:08.577Z,102165.19
2019-05-29T21:24:36.518Z,102171.33
2019-05-29T21:27:04.384Z,102170.28
2019-05-29T21:29:32.198Z,102165.77
2019-05-29T21:32:00.134Z,102166.05
2019-05-29T21:34:28.013Z,102170.48
2019-05-29T21:36:55.730Z,102169.34
2019-05-29T21:39:23.641Z,102171.05
2019-05-29T21:41:51.613Z,102172.19
2019-05-29T21:44:19.398Z,102171.03
2019-05-29T21:46:47.301Z,102163.21
2019-05-29T21:49:15.139Z,102160.62
2019-05-29T21:51:43.635Z,102162.53
2019-05-29T21:54:12.029Z,102159.88
2019-05-29T21:56:39.781Z,102155.81
2019-05-29T21:59:09.499Z,102158.07
2019-05-29T22:01:38.048Z,102158.76
2019-05-29T22:04:07.032Z,102158.27
2019-05-29T22:06:36.858Z,102153.55
2019-05-29T22:09:12.476Z,102153.05
2019-05-29T22:11:40.666Z,102159.42
2019-05-29T22:14:08.553Z,102154.77
2019-05-29T22:16:36.570Z,102151.56
2019-05-29T22:19:04.638Z,102153.25
2019-05-29T22:21:33.634Z,102152.22
2019-05-29T22:24:01.435Z,102157.33
2019-05-29T22:26:29.244Z,102149.19
2019-05-29T22:29:01.509Z,102147.38
2019-05-29T22:31:26.972Z,102149.09
2019-05-29T22:33:55.396Z,102147.50
2019-05-29T22:36:23.575Z,102151.09
2019-05-29T22:38:51.454Z,102145.70
2019-05-29T22:41:19.502Z,102141.23
2019-05-29T22:43:47.447Z,102136.71
2019-05-29T22:46:15.302Z,102137.16
2019-05-29T22:48:43.193Z,102133.48
2019-05-29T22:51:10.983Z,102137.27
2019-05-29T22:53:38.991Z,102134.91
2019-05-29T22:56:06.900Z,102132.02
2019-05-29T22:58:34.798Z,102129.66
2019-05-29T23:01:02.567Z,102127.69
2019-05-29T23:03:30.325Z,102125.03
2019-05-29T23:06:00.379Z,102126.48
2019-05-29T23:08:28.367Z,102122.38
2019-05-29T23:10:56.386Z,102125.09
2019-05-29T23:13:24.137Z,102125.97
2019-05-29T23:15:54.496Z,102115.44
2019-05-29T23:18:22.554Z,102115.98
2019-05-29T23:20:50.271Z,102110.05
2019-05-29T23:23:18.172Z,102105.98
2019-05-29T23:25:46.070Z,102106.38
2019-05-29T23:28:14.964Z,102105.79
2019-05-29T23:30:42.756Z,102102.27
2019-05-29T23:33:10.713Z,102102.11
2019-05-29T23:35:38.471Z,102098.42
2019-05-29T23:38:06.215Z,102095.78
2019-05-29T23:40:34.076Z,102103.30
2019-05-29T23:43:02.065Z,102101.75
2019-05-29T23:45:29.949Z,102099.41
2019-05-29T23:47:57.736Z,102097.41
2019-05-29T23:50:25.447Z,102091.77
2019-05-29T23:52:53.622Z,102091.88
2019-05-29T23:55:21.648Z,102092.12
2019-05-29T23:57:49.378Z,102093.33
